sensor_id;sensor_type;location;lat;lon;timestamp;P1;durP1;ratioP1;P2;durP2;ratioP2
18532;SDS011;9396;51.510;11.934;2023-09-07T00:02:25;6.57;;;5.07;;
18532;SDS011;9396;51.510;11.934;2023-09-07T00:04:53;5.93;;;5.40;;
18532;SDS011;9396;51.510;11.934;2023-09-07T00:07:20;6.87;;;5.37;;
18532;SDS011;9396;51.510;11.934;2023-09-07T00:09:47;8.13;;;5.33;;
18532;SDS011;9396;51.510;11.934;2023-09-07T00:12:13;6.07;;;5.50;;
18532;SDS011;9396;51.510;11.934;2023-09-07T00:14:40;8.43;;;5.27;;
18532;SDS011;9396;51.510;11.934;2023-09-07T00:17:06;9.63;;;5.43;;
18532;SDS011;9396;51.510;11.934;2023-09-07T00:19:33;6.20;;;5.60;;
18532;SDS011;9396;51.510;11.934;2023-09-07T00:22:03;6.10;;;5.50;;
18532;SDS011;9396;51.510;11.934;2023-09-07T00:24:30;6.70;;;5.67;;
18532;SDS011;9396;51.510;11.934;2023-09-07T00:26:58;8.13;;;6.03;;
18532;SDS011;9396;51.510;11.934;2023-09-07T00:29:25;6.30;;;5.10;;
18532;SDS011;9396;51.510;11.934;2023-09-07T00:31:51;7.47;;;5.53;;
18532;SDS011;9396;51.510;11.934;2023-09-07T00:34:18;7.30;;;5.60;;
18532;SDS011;9396;51.510;11.934;2023-09-07T00:36:44;5.93;;;5.33;;
18532;SDS011;9396;51.510;11.934;2023-09-07T00:39:12;7.73;;;5.57;;
18532;SDS011;9396;51.510;11.934;2023-09-07T00:41:39;5.73;;;5.10;;
18532;SDS011;9396;51.510;11.934;2023-09-07T00:44:05;8.33;;;5.33;;
18532;SDS011;9396;51.510;11.934;2023-09-07T00:46:32;8.17;;;5.63;;
18532;SDS011;9396;51.510;11.934;2023-09-07T00:48:59;6.77;;;5.27;;
18532;SDS011;9396;51.510;11.934;2023-09-07T00:51:26;9.90;;;5.40;;
18532;SDS011;9396;51.510;11.934;2023-09-07T00:53:53;7.33;;;5.27;;
18532;SDS011;9396;51.510;11.934;2023-09-07T00:56:21;5.67;;;5.03;;
18532;SDS011;9396;51.510;11.934;2023-09-07T00:58:48;8.67;;;5.67;;
18532;SDS011;9396;51.510;11.934;2023-09-07T01:01:15;8.50;;;5.50;;
18532;SDS011;9396;51.510;11.934;2023-09-07T01:03:42;7.77;;;5.60;;
18532;SDS011;9396;51.510;11.934;2023-09-07T01:06:12;7.00;;;5.60;;
18532;SDS011;9396;51.510;11.934;2023-09-07T01:08:42;9.07;;;5.27;;
18532;SDS011;9396;51.510;11.934;2023-09-07T01:11:12;8.47;;;5.77;;
18532;SDS011;9396;51.510;11.934;2023-09-07T01:13:41;6.37;;;5.70;;
18532;SDS011;9396;51.510;11.934;2023-09-07T01:16:08;6.97;;;5.37;;
18532;SDS011;9396;51.510;11.934;2023-09-07T01:18:36;10.03;;;5.10;;
18532;SDS011;9396;51.510;11.934;2023-09-07T01:21:04;6.13;;;5.53;;
18532;SDS011;9396;51.510;11.934;2023-09-07T01:23:33;8.63;;;6.03;;
18532;SDS011;9396;51.510;11.934;2023-09-07T01:26:01;6.13;;;5.53;;
18532;SDS011;9396;51.510;11.934;2023-09-07T01:28:28;7.60;;;5.10;;
18532;SDS011;9396;51.510;11.934;2023-09-07T01:30:55;6.87;;;5.33;;
18532;SDS011;9396;51.510;11.934;2023-09-07T01:33:22;8.73;;;5.97;;
18532;SDS011;9396;51.510;11.934;2023-09-07T01:35:49;8.93;;;5.63;;
18532;SDS011;9396;51.510;11.934;2023-09-07T01:38:16;7.63;;;5.87;;
18532;SDS011;9396;51.510;11.934;2023-09-07T01:40:44;6.43;;;5.67;;
18532;SDS011;9396;51.510;11.934;2023-09-07T01:43:11;7.67;;;5.53;;
18532;SDS011;9396;51.510;11.934;2023-09-07T01:45:37;7.27;;;5.83;;
18532;SDS011;9396;51.510;11.934;2023-09-07T01:50:34;8.73;;;6.30;;
18532;SDS011;9396;51.510;11.934;2023-09-07T01:53:01;8.80;;;6.17;;
18532;SDS011;9396;51.510;11.934;2023-09-07T01:55:29;6.37;;;5.70;;
18532;SDS011;9396;51.510;11.934;2023-09-07T01:57:57;6.83;;;5.40;;
18532;SDS011;9396;51.510;11.934;2023-09-07T02:00:24;6.23;;;5.30;;
18532;SDS011;9396;51.510;11.934;2023-09-07T02:02:49;7.83;;;5.90;;
18532;SDS011;9396;51.510;11.934;2023-09-07T02:05:16;6.00;;;5.37;;
18532;SDS011;9396;51.510;11.934;2023-09-07T02:07:43;6.27;;;5.27;;
18532;SDS011;9396;51.510;11.934;2023-09-07T02:10:10;8.00;;;5.63;;
18532;SDS011;9396;51.510;11.934;2023-09-07T02:12:37;7.43;;;5.60;;
18532;SDS011;9396;51.510;11.934;2023-09-07T02:15:05;6.37;;;5.67;;
18532;SDS011;9396;51.510;11.934;2023-09-07T02:17:32;6.37;;;5.27;;
18532;SDS011;9396;51.510;11.934;2023-09-07T02:19:59;6.13;;;5.53;;
18532;SDS011;9396;51.510;11.934;2023-09-07T02:22:25;7.37;;;5.97;;
18532;SDS011;9396;51.510;11.934;2023-09-07T02:24:52;7.33;;;5.57;;
18532;SDS011;9396;51.510;11.934;2023-09-07T02:27:19;7.27;;;5.50;;
18532;SDS011;9396;51.510;11.934;2023-09-07T02:29:45;7.17;;;6.37;;
18532;SDS011;9396;51.510;11.934;2023-09-07T02:32:13;9.03;;;5.70;;
18532;SDS011;9396;51.510;11.934;2023-09-07T02:34:40;8.27;;;6.40;;
18532;SDS011;9396;51.510;11.934;2023-09-07T02:37:08;6.40;;;5.80;;
18532;SDS011;9396;51.510;11.934;2023-09-07T02:39:34;7.67;;;6.03;;
18532;SDS011;9396;51.510;11.934;2023-09-07T02:42:01;8.77;;;5.40;;
18532;SDS011;9396;51.510;11.934;2023-09-07T02:44:28;9.97;;;6.23;;
18532;SDS011;9396;51.510;11.934;2023-09-07T02:46:55;9.27;;;5.97;;
18532;SDS011;9396;51.510;11.934;2023-09-07T02:49:23;6.70;;;6.10;;
18532;SDS011;9396;51.510;11.934;2023-09-07T02:51:49;7.60;;;5.50;;
18532;SDS011;9396;51.510;11.934;2023-09-07T02:54:16;7.73;;;5.73;;
18532;SDS011;9396;51.510;11.934;2023-09-07T02:56:43;6.90;;;6.20;;
18532;SDS011;9396;51.510;11.934;2023-09-07T02:59:09;7.47;;;6.27;;
18532;SDS011;9396;51.510;11.934;2023-09-07T03:01:37;7.57;;;6.30;;
18532;SDS011;9396;51.510;11.934;2023-09-07T03:04:05;6.93;;;6.23;;
18532;SDS011;9396;51.510;11.934;2023-09-07T03:06:33;11.37;;;6.90;;
18532;SDS011;9396;51.510;11.934;2023-09-07T03:09:00;9.87;;;6.13;;
18532;SDS011;9396;51.510;11.934;2023-09-07T03:11:27;9.57;;;6.90;;
18532;SDS011;9396;51.510;11.934;2023-09-07T03:13:58;10.33;;;7.07;;
18532;SDS011;9396;51.510;11.934;2023-09-07T03:16:25;7.80;;;6.13;;
18532;SDS011;9396;51.510;11.934;2023-09-07T03:18:51;10.13;;;6.70;;
18532;SDS011;9396;51.510;11.934;2023-09-07T03:21:18;8.00;;;6.70;;
18532;SDS011;9396;51.510;11.934;2023-09-07T03:23:46;7.73;;;6.37;;
18532;SDS011;9396;51.510;11.934;2023-09-07T03:26:13;9.87;;;6.30;;
18532;SDS011;9396;51.510;11.934;2023-09-07T03:28:39;8.27;;;6.63;;
18532;SDS011;9396;51.510;11.934;2023-09-07T03:31:06;6.23;;;5.63;;
18532;SDS011;9396;51.510;11.934;2023-09-07T03:33:33;7.10;;;5.97;;
18532;SDS011;9396;51.510;11.934;2023-09-07T03:35:59;9.73;;;5.90;;
18532;SDS011;9396;51.510;11.934;2023-09-07T03:38:26;9.53;;;6.10;;
18532;SDS011;9396;51.510;11.934;2023-09-07T03:40:54;8.07;;;6.30;;
18532;SDS011;9396;51.510;11.934;2023-09-07T03:43:21;7.63;;;6.43;;
18532;SDS011;9396;51.510;11.934;2023-09-07T03:45:48;8.93;;;6.40;;
18532;SDS011;9396;51.510;11.934;2023-09-07T03:48:14;6.73;;;5.93;;
18532;SDS011;9396;51.510;11.934;2023-09-07T03:50:41;6.87;;;6.13;;
18532;SDS011;9396;51.510;11.934;2023-09-07T03:53:07;7.27;;;6.30;;
18532;SDS011;9396;51.510;11.934;2023-09-07T03:55:39;8.53;;;5.90;;
18532;SDS011;9396;51.510;11.934;2023-09-07T03:58:08;8.90;;;5.97;;
18532;SDS011;9396;51.510;11.934;2023-09-07T04:00:37;6.17;;;5.57;;
18532;SDS011;9396;51.510;11.934;2023-09-07T04:03:04;9.00;;;6.13;;
18532;SDS011;9396;51.510;11.934;2023-09-07T04:05:31;8.43;;;6.27;;
18532;SDS011;9396;51.510;11.934;2023-09-07T04:07:58;6.73;;;6.03;;
18532;SDS011;9396;51.510;11.934;2023-09-07T04:10:25;9.67;;;5.43;;
18532;SDS011;9396;51.510;11.934;2023-09-07T04:12:52;6.20;;;5.60;;
18532;SDS011;9396;51.510;11.934;2023-09-07T04:15:20;7.23;;;6.07;;
18532;SDS011;9396;51.510;11.934;2023-09-07T04:17:47;6.57;;;5.90;;
18532;SDS011;9396;51.510;11.934;2023-09-07T04:20:13;7.00;;;6.30;;
18532;SDS011;9396;51.510;11.934;2023-09-07T04:22:40;7.50;;;5.90;;
18532;SDS011;9396;51.510;11.934;2023-09-07T04:25:07;9.80;;;6.70;;
18532;SDS011;9396;51.510;11.934;2023-09-07T04:27:33;6.47;;;5.40;;
18532;SDS011;9396;51.510;11.934;2023-09-07T04:30:00;7.30;;;5.63;;
18532;SDS011;9396;51.510;11.934;2023-09-07T04:32:28;9.83;;;6.60;;
18532;SDS011;9396;51.510;11.934;2023-09-07T04:34:55;8.57;;;6.30;;
18532;SDS011;9396;51.510;11.934;2023-09-07T04:37:24;6.87;;;5.60;;
18532;SDS011;9396;51.510;11.934;2023-09-07T04:39:51;7.00;;;6.20;;
18532;SDS011;9396;51.510;11.934;2023-09-07T04:42:18;6.70;;;5.70;;
18532;SDS011;9396;51.510;11.934;2023-09-07T04:44:45;8.13;;;5.93;;
18532;SDS011;9396;51.510;11.934;2023-09-07T04:47:12;7.57;;;5.87;;
18532;SDS011;9396;51.510;11.934;2023-09-07T04:49:40;9.27;;;6.47;;
18532;SDS011;9396;51.510;11.934;2023-09-07T04:52:06;7.47;;;6.20;;
18532;SDS011;9396;51.510;11.934;2023-09-07T04:54:34;7.33;;;6.57;;
18532;SDS011;9396;51.510;11.934;2023-09-07T04:57:01;9.57;;;6.17;;
18532;SDS011;9396;51.510;11.934;2023-09-07T04:59:27;9.57;;;6.37;;
18532;SDS011;9396;51.510;11.934;2023-09-07T05:01:54;8.47;;;5.63;;
18532;SDS011;9396;51.510;11.934;2023-09-07T05:04:20;6.70;;;6.00;;
18532;SDS011;9396;51.510;11.934;2023-09-07T05:06:48;7.50;;;6.33;;
18532;SDS011;9396;51.510;11.934;2023-09-07T05:09:15;7.63;;;6.50;;
18532;SDS011;9396;51.510;11.934;2023-09-07T05:11:41;10.63;;;6.40;;
18532;SDS011;9396;51.510;11.934;2023-09-07T05:14:08;7.33;;;6.23;;
18532;SDS011;9396;51.510;11.934;2023-09-07T05:16:35;11.10;;;6.57;;
18532;SDS011;9396;51.510;11.934;2023-09-07T05:19:01;8.13;;;6.00;;
18532;SDS011;9396;51.510;11.934;2023-09-07T05:21:28;7.80;;;6.07;;
18532;SDS011;9396;51.510;11.934;2023-09-07T05:23:56;9.83;;;6.53;;
18532;SDS011;9396;51.510;11.934;2023-09-07T05:26:23;7.80;;;6.27;;
18532;SDS011;9396;51.510;11.934;2023-09-07T05:28:50;11.67;;;6.70;;
18532;SDS011;9396;51.510;11.934;2023-09-07T05:31:16;11.60;;;6.97;;
18532;SDS011;9396;51.510;11.934;2023-09-07T05:33:43;13.03;;;7.17;;
18532;SDS011;9396;51.510;11.934;2023-09-07T05:36:10;11.03;;;6.97;;
18532;SDS011;9396;51.510;11.934;2023-09-07T05:38:36;11.03;;;6.13;;
18532;SDS011;9396;51.510;11.934;2023-09-07T05:41:05;10.53;;;6.77;;
18532;SDS011;9396;51.510;11.934;2023-09-07T05:43:32;7.70;;;6.97;;
18532;SDS011;9396;51.510;11.934;2023-09-07T05:45:58;9.47;;;6.97;;
18532;SDS011;9396;51.510;11.934;2023-09-07T05:48:25;9.23;;;7.17;;
18532;SDS011;9396;51.510;11.934;2023-09-07T05:50:52;11.57;;;6.80;;
18532;SDS011;9396;51.510;11.934;2023-09-07T05:53:18;9.73;;;6.40;;
18532;SDS011;9396;51.510;11.934;2023-09-07T05:55:45;10.37;;;6.23;;
18532;SDS011;9396;51.510;11.934;2023-09-07T05:58:13;6.33;;;5.57;;
18532;SDS011;9396;51.510;11.934;2023-09-07T06:00:40;9.53;;;6.03;;
18532;SDS011;9396;51.510;11.934;2023-09-07T06:03:07;12.93;;;6.07;;
18532;SDS011;9396;51.510;11.934;2023-09-07T06:05:34;9.63;;;5.70;;
18532;SDS011;9396;51.510;11.934;2023-09-07T06:08:01;10.50;;;6.77;;
18532;SDS011;9396;51.510;11.934;2023-09-07T06:10:28;10.10;;;6.20;;
18532;SDS011;9396;51.510;11.934;2023-09-07T06:12:56;10.47;;;5.73;;
18532;SDS011;9396;51.510;11.934;2023-09-07T06:15:24;11.57;;;6.50;;
18532;SDS011;9396;51.510;11.934;2023-09-07T06:17:52;10.80;;;6.33;;
18532;SDS011;9396;51.510;11.934;2023-09-07T06:20:19;7.30;;;6.10;;
18532;SDS011;9396;51.510;11.934;2023-09-07T06:22:45;8.87;;;6.87;;
18532;SDS011;9396;51.510;11.934;2023-09-07T06:25:12;14.70;;;6.13;;
18532;SDS011;9396;51.510;11.934;2023-09-07T06:27:39;11.27;;;6.73;;
18532;SDS011;9396;51.510;11.934;2023-09-07T06:30:06;13.43;;;7.10;;
18532;SDS011;9396;51.510;11.934;2023-09-07T06:32:35;10.17;;;7.13;;
18532;SDS011;9396;51.510;11.934;2023-09-07T06:35:01;13.63;;;8.87;;
18532;SDS011;9396;51.510;11.934;2023-09-07T06:37:29;13.87;;;8.33;;
18532;SDS011;9396;51.510;11.934;2023-09-07T06:39:55;11.00;;;7.17;;
18532;SDS011;9396;51.510;11.934;2023-09-07T06:42:22;11.40;;;8.17;;
18532;SDS011;9396;51.510;11.934;2023-09-07T06:44:48;12.27;;;8.43;;
18532;SDS011;9396;51.510;11.934;2023-09-07T06:47:16;8.83;;;7.93;;
18532;SDS011;9396;51.510;11.934;2023-09-07T06:49:44;10.87;;;8.90;;
18532;SDS011;9396;51.510;11.934;2023-09-07T06:52:11;9.63;;;8.20;;
18532;SDS011;9396;51.510;11.934;2023-09-07T06:54:38;12.17;;;9.07;;
18532;SDS011;9396;51.510;11.934;2023-09-07T06:57:06;10.87;;;9.13;;
18532;SDS011;9396;51.510;11.934;2023-09-07T06:59:33;13.83;;;10.00;;
18532;SDS011;9396;51.510;11.934;2023-09-07T07:02:00;15.43;;;9.43;;
18532;SDS011;9396;51.510;11.934;2023-09-07T07:04:29;13.87;;;9.23;;
18532;SDS011;9396;51.510;11.934;2023-09-07T07:06:57;13.50;;;8.80;;
18532;SDS011;9396;51.510;11.934;2023-09-07T07:09:26;13.67;;;9.10;;
18532;SDS011;9396;51.510;11.934;2023-09-07T07:11:53;10.03;;;9.00;;
18532;SDS011;9396;51.510;11.934;2023-09-07T07:14:19;14.77;;;9.60;;
18532;SDS011;9396;51.510;11.934;2023-09-07T07:16:46;9.97;;;8.93;;
18532;SDS011;9396;51.510;11.934;2023-09-07T07:19:13;17.00;;;8.50;;
18532;SDS011;9396;51.510;11.934;2023-09-07T07:21:39;18.90;;;9.43;;
18532;SDS011;9396;51.510;11.934;2023-09-07T07:24:07;9.63;;;8.63;;
18532;SDS011;9396;51.510;11.934;2023-09-07T07:26:34;12.03;;;8.60;;
18532;SDS011;9396;51.510;11.934;2023-09-07T07:29:01;11.17;;;8.40;;
18532;SDS011;9396;51.510;11.934;2023-09-07T07:31:28;9.00;;;8.03;;
18532;SDS011;9396;51.510;11.934;2023-09-07T07:33:55;12.10;;;8.00;;
18532;SDS011;9396;51.510;11.934;2023-09-07T07:36:21;8.53;;;7.37;;
18532;SDS011;9396;51.510;11.934;2023-09-07T07:38:48;8.90;;;8.00;;
18532;SDS011;9396;51.510;11.934;2023-09-07T07:41:16;12.87;;;8.80;;
18532;SDS011;9396;51.510;11.934;2023-09-07T07:43:44;16.10;;;8.80;;
18532;SDS011;9396;51.510;11.934;2023-09-07T07:46:10;13.37;;;7.60;;
18532;SDS011;9396;51.510;11.934;2023-09-07T07:48:40;10.50;;;8.00;;
18532;SDS011;9396;51.510;11.934;2023-09-07T07:51:07;11.97;;;9.83;;
18532;SDS011;9396;51.510;11.934;2023-09-07T07:53:34;12.73;;;9.37;;
18532;SDS011;9396;51.510;11.934;2023-09-07T07:56:00;11.43;;;8.70;;
18532;SDS011;9396;51.510;11.934;2023-09-07T07:58:29;9.77;;;7.83;;
18532;SDS011;9396;51.510;11.934;2023-09-07T08:00:56;9.97;;;7.63;;
18532;SDS011;9396;51.510;11.934;2023-09-07T08:03:23;12.47;;;7.70;;
18532;SDS011;9396;51.510;11.934;2023-09-07T08:05:50;9.03;;;7.03;;
18532;SDS011;9396;51.510;11.934;2023-09-07T08:08:17;11.17;;;7.27;;
18532;SDS011;9396;51.510;11.934;2023-09-07T08:10:44;10.33;;;6.60;;
18532;SDS011;9396;51.510;11.934;2023-09-07T08:13:11;8.23;;;6.63;;
18532;SDS011;9396;51.510;11.934;2023-09-07T08:15:39;12.23;;;7.33;;
18532;SDS011;9396;51.510;11.934;2023-09-07T08:18:06;8.97;;;7.37;;
18532;SDS011;9396;51.510;11.934;2023-09-07T08:20:33;8.70;;;6.33;;
18532;SDS011;9396;51.510;11.934;2023-09-07T08:23:01;10.77;;;7.10;;
18532;SDS011;9396;51.510;11.934;2023-09-07T08:25:32;8.37;;;5.73;;
18532;SDS011;9396;51.510;11.934;2023-09-07T08:27:58;8.30;;;6.23;;
18532;SDS011;9396;51.510;11.934;2023-09-07T08:30:25;13.03;;;6.80;;
18532;SDS011;9396;51.510;11.934;2023-09-07T08:32:53;8.20;;;6.87;;
18532;SDS011;9396;51.510;11.934;2023-09-07T08:35:20;11.73;;;6.50;;
18532;SDS011;9396;51.510;11.934;2023-09-07T08:37:51;8.20;;;6.03;;
18532;SDS011;9396;51.510;11.934;2023-09-07T08:40:18;10.37;;;6.80;;
18532;SDS011;9396;51.510;11.934;2023-09-07T08:42:46;6.87;;;5.40;;
18532;SDS011;9396;51.510;11.934;2023-09-07T08:45:13;10.27;;;6.73;;
18532;SDS011;9396;51.510;11.934;2023-09-07T08:47:45;7.77;;;5.60;;
18532;SDS011;9396;51.510;11.934;2023-09-07T08:50:14;9.03;;;6.10;;
18532;SDS011;9396;51.510;11.934;2023-09-07T08:52:43;12.77;;;6.23;;
18532;SDS011;9396;51.510;11.934;2023-09-07T08:55:11;10.43;;;5.93;;
18532;SDS011;9396;51.510;11.934;2023-09-07T08:57:39;9.33;;;6.57;;
18532;SDS011;9396;51.510;11.934;2023-09-07T09:00:06;15.70;;;6.00;;
18532;SDS011;9396;51.510;11.934;2023-09-07T09:02:41;9.37;;;6.83;;
18532;SDS011;9396;51.510;11.934;2023-09-07T09:05:08;10.83;;;5.83;;
18532;SDS011;9396;51.510;11.934;2023-09-07T09:07:37;9.03;;;5.53;;
18532;SDS011;9396;51.510;11.934;2023-09-07T09:10:04;8.33;;;6.97;;
18532;SDS011;9396;51.510;11.934;2023-09-07T09:12:31;9.87;;;7.17;;
18532;SDS011;9396;51.510;11.934;2023-09-07T09:14:58;7.87;;;6.40;;
18532;SDS011;9396;51.510;11.934;2023-09-07T09:17:25;9.33;;;6.23;;
18532;SDS011;9396;51.510;11.934;2023-09-07T09:19:52;18.17;;;6.63;;
18532;SDS011;9396;51.510;11.934;2023-09-07T09:22:18;6.73;;;5.87;;
18532;SDS011;9396;51.510;11.934;2023-09-07T09:24:48;11.77;;;6.27;;
18532;SDS011;9396;51.510;11.934;2023-09-07T09:27:15;8.37;;;7.03;;
18532;SDS011;9396;51.510;11.934;2023-09-07T09:29:42;10.30;;;5.73;;
18532;SDS011;9396;51.510;11.934;2023-09-07T09:32:09;7.37;;;5.70;;
18532;SDS011;9396;51.510;11.934;2023-09-07T09:34:36;6.80;;;4.93;;
18532;SDS011;9396;51.510;11.934;2023-09-07T09:37:03;5.57;;;3.73;;
18532;SDS011;9396;51.510;11.934;2023-09-07T09:39:31;7.23;;;5.20;;
18532;SDS011;9396;51.510;11.934;2023-09-07T09:41:59;7.47;;;5.63;;
18532;SDS011;9396;51.510;11.934;2023-09-07T09:44:26;8.33;;;5.73;;
18532;SDS011;9396;51.510;11.934;2023-09-07T09:46:55;9.20;;;4.13;;
18532;SDS011;9396;51.510;11.934;2023-09-07T09:49:22;9.07;;;5.23;;
18532;SDS011;9396;51.510;11.934;2023-09-07T09:51:51;9.53;;;5.10;;
18532;SDS011;9396;51.510;11.934;2023-09-07T09:54:18;6.90;;;5.00;;
18532;SDS011;9396;51.510;11.934;2023-09-07T09:56:45;8.27;;;4.37;;
18532;SDS011;9396;51.510;11.934;2023-09-07T09:59:13;7.17;;;4.63;;
18532;SDS011;9396;51.510;11.934;2023-09-07T10:01:41;4.97;;;3.90;;
18532;SDS011;9396;51.510;11.934;2023-09-07T10:04:10;4.50;;;4.07;;
18532;SDS011;9396;51.510;11.934;2023-09-07T10:06:39;7.93;;;4.40;;
18532;SDS011;9396;51.510;11.934;2023-09-07T10:09:16;7.87;;;4.07;;
18532;SDS011;9396;51.510;11.934;2023-09-07T10:11:50;7.07;;;4.00;;
18532;SDS011;9396;51.510;11.934;2023-09-07T10:14:19;5.07;;;3.80;;
18532;SDS011;9396;51.510;11.934;2023-09-07T10:16:47;5.13;;;3.87;;
18532;SDS011;9396;51.510;11.934;2023-09-07T10:19:15;10.33;;;4.07;;
18532;SDS011;9396;51.510;11.934;2023-09-07T10:21:42;11.73;;;3.97;;
18532;SDS011;9396;51.510;11.934;2023-09-07T10:24:09;8.67;;;4.13;;
18532;SDS011;9396;51.510;11.934;2023-09-07T10:26:36;5.47;;;3.70;;
18532;SDS011;9396;51.510;11.934;2023-09-07T10:29:03;16.37;;;4.53;;
18532;SDS011;9396;51.510;11.934;2023-09-07T10:31:32;5.63;;;4.10;;
18532;SDS011;9396;51.510;11.934;2023-09-07T10:34:07;8.13;;;4.10;;
18532;SDS011;9396;51.510;11.934;2023-09-07T10:36:34;6.23;;;3.90;;
18532;SDS011;9396;51.510;11.934;2023-09-07T10:39:03;7.03;;;4.47;;
18532;SDS011;9396;51.510;11.934;2023-09-07T10:41:39;4.80;;;3.57;;
18532;SDS011;9396;51.510;11.934;2023-09-07T10:44:06;6.00;;;3.70;;
18532;SDS011;9396;51.510;11.934;2023-09-07T10:46:34;7.77;;;3.90;;
18532;SDS011;9396;51.510;11.934;2023-09-07T10:49:03;5.90;;;3.67;;
18532;SDS011;9396;51.510;11.934;2023-09-07T10:51:32;5.43;;;4.03;;
18532;SDS011;9396;51.510;11.934;2023-09-07T10:53:59;6.87;;;3.80;;
18532;SDS011;9396;51.510;11.934;2023-09-07T10:56:26;5.47;;;3.70;;
18532;SDS011;9396;51.510;11.934;2023-09-07T10:58:53;6.10;;;3.70;;
18532;SDS011;9396;51.510;11.934;2023-09-07T11:01:20;6.37;;;3.70;;
18532;SDS011;9396;51.510;11.934;2023-09-07T11:03:48;5.23;;;4.20;;
18532;SDS011;9396;51.510;11.934;2023-09-07T11:06:16;6.40;;;3.47;;
18532;SDS011;9396;51.510;11.934;2023-09-07T11:08:45;4.80;;;3.50;;
18532;SDS011;9396;51.510;11.934;2023-09-07T11:11:12;5.87;;;3.57;;
18532;SDS011;9396;51.510;11.934;2023-09-07T11:13:39;5.17;;;3.60;;
18532;SDS011;9396;51.510;11.934;2023-09-07T11:16:07;5.27;;;3.50;;
18532;SDS011;9396;51.510;11.934;2023-09-07T11:18:34;5.50;;;3.67;;
18532;SDS011;9396;51.510;11.934;2023-09-07T11:21:03;5.13;;;3.47;;
18532;SDS011;9396;51.510;11.934;2023-09-07T11:23:30;4.90;;;3.63;;
18532;SDS011;9396;51.510;11.934;2023-09-07T11:26:03;4.47;;;3.87;;
18532;SDS011;9396;51.510;11.934;2023-09-07T11:28:30;8.63;;;3.30;;
18532;SDS011;9396;51.510;11.934;2023-09-07T11:30:57;6.00;;;3.70;;
18532;SDS011;9396;51.510;11.934;2023-09-07T11:33:24;4.53;;;3.57;;
18532;SDS011;9396;51.510;11.934;2023-09-07T11:35:52;5.60;;;3.50;;
18532;SDS011;9396;51.510;11.934;2023-09-07T11:38:21;7.57;;;3.63;;
18532;SDS011;9396;51.510;11.934;2023-09-07T11:40:48;5.60;;;3.43;;
18532;SDS011;9396;51.510;11.934;2023-09-07T11:43:15;5.70;;;3.73;;
18532;SDS011;9396;51.510;11.934;2023-09-07T11:45:45;5.53;;;3.63;;
18532;SDS011;9396;51.510;11.934;2023-09-07T11:48:12;6.30;;;3.70;;
18532;SDS011;9396;51.510;11.934;2023-09-07T11:50:40;5.80;;;3.47;;
18532;SDS011;9396;51.510;11.934;2023-09-07T11:53:07;7.47;;;3.60;;
18532;SDS011;9396;51.510;11.934;2023-09-07T11:55:35;7.03;;;3.53;;
18532;SDS011;9396;51.510;11.934;2023-09-07T11:58:02;6.17;;;3.77;;
18532;SDS011;9396;51.510;11.934;2023-09-07T12:00:29;7.93;;;3.30;;
18532;SDS011;9396;51.510;11.934;2023-09-07T12:02:57;6.17;;;3.40;;
18532;SDS011;9396;51.510;11.934;2023-09-07T12:05:23;3.67;;;3.23;;
18532;SDS011;9396;51.510;11.934;2023-09-07T12:07:50;4.43;;;3.30;;
18532;SDS011;9396;51.510;11.934;2023-09-07T12:10:17;3.43;;;3.13;;
18532;SDS011;9396;51.510;11.934;2023-09-07T12:12:45;12.50;;;3.40;;
18532;SDS011;9396;51.510;11.934;2023-09-07T12:15:11;4.23;;;3.30;;
18532;SDS011;9396;51.510;11.934;2023-09-07T12:17:38;5.47;;;3.20;;
18532;SDS011;9396;51.510;11.934;2023-09-07T12:20:05;6.90;;;3.50;;
18532;SDS011;9396;51.510;11.934;2023-09-07T12:22:35;6.93;;;3.37;;
18532;SDS011;9396;51.510;11.934;2023-09-07T12:25:02;4.30;;;2.93;;
18532;SDS011;9396;51.510;11.934;2023-09-07T12:27:31;8.83;;;3.40;;
18532;SDS011;9396;51.510;11.934;2023-09-07T12:29:59;5.53;;;3.30;;
18532;SDS011;9396;51.510;11.934;2023-09-07T12:32:26;6.43;;;3.40;;
18532;SDS011;9396;51.510;11.934;2023-09-07T12:34:53;3.23;;;2.90;;
18532;SDS011;9396;51.510;11.934;2023-09-07T12:37:20;7.37;;;3.17;;
18532;SDS011;9396;51.510;11.934;2023-09-07T12:39:48;5.07;;;3.37;;
18532;SDS011;9396;51.510;11.934;2023-09-07T12:42:15;6.93;;;3.13;;
18532;SDS011;9396;51.510;11.934;2023-09-07T12:44:42;10.60;;;3.30;;
18532;SDS011;9396;51.510;11.934;2023-09-07T12:47:10;7.03;;;3.37;;
18532;SDS011;9396;51.510;11.934;2023-09-07T12:49:37;6.73;;;3.03;;
18532;SDS011;9396;51.510;11.934;2023-09-07T12:52:04;4.70;;;2.87;;
18532;SDS011;9396;51.510;11.934;2023-09-07T12:54:34;4.90;;;3.10;;
18532;SDS011;9396;51.510;11.934;2023-09-07T12:57:00;4.40;;;2.73;;
18532;SDS011;9396;51.510;11.934;2023-09-07T12:59:28;6.87;;;2.93;;
18532;SDS011;9396;51.510;11.934;2023-09-07T13:01:54;5.83;;;2.60;;
18532;SDS011;9396;51.510;11.934;2023-09-07T13:04:23;4.20;;;2.73;;
18532;SDS011;9396;51.510;11.934;2023-09-07T13:06:49;4.87;;;3.00;;
18532;SDS011;9396;51.510;11.934;2023-09-07T13:09:16;5.90;;;2.90;;
18532;SDS011;9396;51.510;11.934;2023-09-07T13:11:43;4.63;;;3.20;;
18532;SDS011;9396;51.510;11.934;2023-09-07T13:14:09;3.80;;;2.77;;
18532;SDS011;9396;51.510;11.934;2023-09-07T13:16:36;9.00;;;2.90;;
18532;SDS011;9396;51.510;11.934;2023-09-07T13:19:03;4.63;;;2.67;;
18532;SDS011;9396;51.510;11.934;2023-09-07T13:21:31;4.73;;;3.20;;
18532;SDS011;9396;51.510;11.934;2023-09-07T13:23:58;3.93;;;2.87;;
18532;SDS011;9396;51.510;11.934;2023-09-07T13:26:25;5.63;;;2.80;;
18532;SDS011;9396;51.510;11.934;2023-09-07T13:28:51;4.53;;;3.00;;
18532;SDS011;9396;51.510;11.934;2023-09-07T13:31:18;6.67;;;3.13;;
18532;SDS011;9396;51.510;11.934;2023-09-07T13:33:44;12.77;;;3.13;;
18532;SDS011;9396;51.510;11.934;2023-09-07T13:36:11;4.83;;;2.93;;
18532;SDS011;9396;51.510;11.934;2023-09-07T13:38:39;4.67;;;2.97;;
18532;SDS011;9396;51.510;11.934;2023-09-07T13:41:06;2.80;;;2.50;;
18532;SDS011;9396;51.510;11.934;2023-09-07T13:43:33;4.10;;;3.00;;
18532;SDS011;9396;51.510;11.934;2023-09-07T13:45:59;5.07;;;3.00;;
18532;SDS011;9396;51.510;11.934;2023-09-07T13:48:26;6.37;;;3.03;;
18532;SDS011;9396;51.510;11.934;2023-09-07T13:50:53;4.03;;;3.27;;
18532;SDS011;9396;51.510;11.934;2023-09-07T13:53:19;5.67;;;3.13;;
18532;SDS011;9396;51.510;11.934;2023-09-07T13:55:47;6.07;;;2.70;;
18532;SDS011;9396;51.510;11.934;2023-09-07T13:58:15;5.00;;;3.00;;
18532;SDS011;9396;51.510;11.934;2023-09-07T14:00:41;9.27;;;3.10;;
18532;SDS011;9396;51.510;11.934;2023-09-07T14:03:08;5.63;;;2.80;;
18532;SDS011;9396;51.510;11.934;2023-09-07T14:05:35;3.70;;;2.70;;
18532;SDS011;9396;51.510;11.934;2023-09-07T14:08:02;4.20;;;3.47;;
18532;SDS011;9396;51.510;11.934;2023-09-07T14:10:29;3.97;;;3.10;;
18532;SDS011;9396;51.510;11.934;2023-09-07T14:12:56;4.73;;;3.10;;
18532;SDS011;9396;51.510;11.934;2023-09-07T14:15:24;5.03;;;3.10;;
18532;SDS011;9396;51.510;11.934;2023-09-07T14:17:50;4.07;;;2.80;;
18532;SDS011;9396;51.510;11.934;2023-09-07T14:20:17;8.47;;;2.50;;
18532;SDS011;9396;51.510;11.934;2023-09-07T14:22:44;5.53;;;2.77;;
18532;SDS011;9396;51.510;11.934;2023-09-07T14:25:10;4.63;;;2.87;;
18532;SDS011;9396;51.510;11.934;2023-09-07T14:27:38;5.77;;;3.13;;
18532;SDS011;9396;51.510;11.934;2023-09-07T14:30:07;5.77;;;3.30;;
18532;SDS011;9396;51.510;11.934;2023-09-07T14:32:34;3.27;;;2.50;;
18532;SDS011;9396;51.510;11.934;2023-09-07T14:35:01;6.13;;;3.57;;
18532;SDS011;9396;51.510;11.934;2023-09-07T14:37:28;4.70;;;3.17;;
18532;SDS011;9396;51.510;11.934;2023-09-07T14:39:54;4.90;;;3.10;;
18532;SDS011;9396;51.510;11.934;2023-09-07T14:42:23;4.33;;;3.10;;
18532;SDS011;9396;51.510;11.934;2023-09-07T14:44:49;7.23;;;3.03;;
18532;SDS011;9396;51.510;11.934;2023-09-07T14:47:17;4.23;;;3.03;;
18532;SDS011;9396;51.510;11.934;2023-09-07T14:49:50;4.97;;;2.80;;